| time (UTC) | temp C | wind direction | speed KPH | gust KPH | rain 1hr cm | rain 24hr cm | rain mn cm | humidity % | barometer mb |
| 20260507160016 | 31 | 315 | 1.6 | 14.5 | 0.00 | 0.00 | 0.00 | 53 | 988.0 |
| 20260507155015 | 31 | 0 | 6.4 | 22.5 | 0.00 | 0.00 | 0.00 | 53 | 988.1 |
| 20260507154015 | 30 | 0 | 1.6 | 11.3 | 0.00 | 0.00 | 0.00 | 53 | 988.1 |
| 20260507153016 | 30 | 315 | 4.8 | 19.3 | 0.00 | 0.00 | 0.00 | 56 | 988.1 |
| 20260507152017 | 30 | 0 | 1.6 | 16.1 | 0.00 | 0.00 | 0.00 | 56 | 988.2 |
| 20260507151018 | 30 | 293 | 3.2 | 14.5 | 0.00 | 0.00 | 0.00 | 57 | 988.4 |
| 20260507150017 | 30 | 0 | 3.2 | 16.1 | 0.00 | 0.00 | 0.00 | 58 | 988.4 |
| 20260507145017 | 29 | 0 | 3.2 | 24.1 | 0.00 | 0.00 | 0.00 | 59 | 988.6 |
| 20260507144018 | 28 | 0 | 3.2 | 11.3 | 0.00 | 0.00 | 0.00 | 60 | 988.6 |
| 20260507143018 | 28 | 0 | 4.8 | 16.1 | 0.00 | 0.00 | 0.00 | 62 | 988.6 |
| 20260507142037 | 28 | 0 | 3.2 | 16.1 | 0.00 | 0.00 | 0.00 | 62 | 988.5 |
| 20260507141017 | 28 | 315 | 4.8 | 17.7 | 0.00 | 0.00 | 0.00 | 65 | 988.6 |
| 20260507140017 | 27 | 0 | 4.8 | 14.5 | 0.00 | 0.00 | 0.00 | 67 | 988.6 |
| 20260507135017 | 27 | 0 | 3.2 | 11.3 | 0.00 | 0.00 | 0.00 | 67 | 988.6 |
| 20260507134017 | 28 | 315 | 1.6 | 16.1 | 0.00 | 0.00 | 0.00 | 65 | 988.6 |
| 20260507133017 | 27 | 0 | 1.6 | 8.0 | 0.00 | 0.00 | 0.00 | 67 | 988.6 |
| 20260507132037 | 27 | 0.0 | 9.7 | 0.00 | 0.00 | 0.00 | 69 | 988.6 | |
| 20260507131017 | 27 | 0 | 3.2 | 9.7 | 0.00 | 0.00 | 0.00 | 68 | 988.7 |
| 20260507130017 | 27 | 0.0 | 9.7 | 0.00 | 0.00 | 0.00 | 71 | 988.7 | |
| 20260507125017 | 26 | 0.0 | 6.4 | 0.00 | 0.00 | 0.00 | 72 | 988.8 | |
| 20260507124017 | 27 | 0 | 1.6 | 8.0 | 0.00 | 0.00 | 0.00 | 71 | 988.6 |
| 20260507123017 | 26 | 315 | 1.6 | 9.7 | 0.00 | 0.00 | 0.00 | 72 | 988.6 |
| 20260507122017 | 26 | 315 | 1.6 | 11.3 | 0.00 | 0.00 | 0.00 | 74 | 988.6 |
| 20260507121037 | 26 | 0.0 | 11.3 | 0.00 | 0.00 | 0.00 | 76 | 988.4 | |
| 20260507120017 | 25 | 293 | 1.6 | 6.4 | 0.00 | 0.00 | 0.00 | 79 | 988.4 |
| 20260507115017 | 25 | 0.0 | 4.8 | 0.00 | 0.00 | 0.00 | 81 | 988.0 | |
| 20260507114017 | 24 | 293 | 3.2 | 16.1 | 0.00 | 0.00 | 0.00 | 82 | 988.0 |
| 20260507113037 | 24 | 293 | 1.6 | 14.5 | 0.00 | 0.00 | 0.00 | 84 | 988.0 |
| 20260507112017 | 23 | 293 | 1.6 | 11.3 | 0.00 | 0.00 | 0.00 | 86 | 987.9 |
| 20260507111017 | 23 | 0.0 | 3.2 | 0.00 | 0.00 | 0.00 | 87 | 987.6 | |
| 20260507110016 | 23 | 0.0 | 0.0 | 0.00 | 0.00 | 0.00 | 87 | 987.6 | |
| 20260507105016 | 23 | 0.0 | 1.6 | 0.00 | 0.00 | 0.00 | 87 | 987.5 | |
| 20260507104016 | 23 | 0.0 | 3.2 | 0.00 | 0.00 | 0.00 | 87 | 987.4 | |
| 20260507103016 | 23 | 0.0 | 8.0 | 0.00 | 0.00 | 0.00 | 87 | 987.4 | |
| 20260507102017 | 23 | 0.0 | 6.4 | 0.00 | 0.00 | 0.00 | 87 | 987.1 | |
| 20260507101016 | 23 | 0.0 | 6.4 | 0.00 | 0.00 | 0.00 | 87 | 987.0 | |
| 20260507100016 | 22 | 0.0 | 1.6 | 0.00 | 0.00 | 0.00 | 87 | 987.0 | |
| 20260507095016 | 22 | 0.0 | 0.0 | 0.00 | 0.00 | 0.00 | 87 | 987.0 | |
| 20260507094016 | 23 | 0.0 | 0.0 | 0.00 | 0.00 | 0.00 | 87 | 986.9 | |
| 20260507093016 | 23 | 0.0 | 4.8 | 0.00 | 0.00 | 0.00 | 87 | 986.9 | |
| 20260507092016 | 23 | 0.0 | 4.8 | 0.00 | 0.00 | 0.00 | 87 | 986.9 | |
| 20260507091016 | 23 | 0.0 | 0.0 | 0.00 | 0.00 | 0.00 | 87 | 986.9 | |
| 20260507090056 | 23 | 0.0 | 1.6 | 0.00 | 0.00 | 0.00 | 87 | 986.9 | |
| 20260507085016 | 23 | 0.0 | 3.2 | 0.00 | 0.00 | 0.00 | 87 | 986.6 | |
| 20260507084016 | 23 | 0.0 | 11.3 | 0.00 | 0.00 | 0.00 | 87 | 986.8 | |
| 20260507083016 | 23 | 0.0 | 0.0 | 0.00 | 0.00 | 0.00 | 86 | 986.8 | |
| 20260507082016 | 23 | 0.0 | 4.8 | 0.00 | 0.00 | 0.00 | 86 | 986.9 | |
| 20260507081016 | 23 | 0.0 | 0.0 | 0.00 | 0.00 | 0.00 | 86 | 986.9 | |
| 20260507080016 | 23 | 0.0 | 1.6 | 0.00 | 0.00 | 0.00 | 86 | 986.9 | |
| 20260507075036 | 23 | 0.0 | 3.2 | 0.00 | 0.00 | 0.00 | 85 | 987.0 | |
| 20260507074016 | 23 | 0.0 | 0.0 | 0.00 | 0.00 | 0.00 | 85 | 987.0 | |
| 20260507073016 | 23 | 0.0 | 0.0 | 0.00 | 0.00 | 0.00 | 85 | 987.0 | |
| 20260507072036 | 23 | 0.0 | 0.0 | 0.00 | 0.00 | 0.00 | 85 | 987.2 | |
| 20260507071016 | 23 | 0.0 | 0.0 | 0.00 | 0.00 | 0.00 | 84 | 987.4 | |
| 20260507070016 | 23 | 0.0 | 0.0 | 0.00 | 0.00 | 0.00 | 84 | 987.4 | |
| 20260507065016 | 23 | 0.0 | 0.0 | 0.00 | 0.00 | 0.00 | 84 | 987.5 | |
| 20260507064016 | 23 | 0.0 | 0.0 | 0.00 | 0.00 | 0.00 | 83 | 987.5 | |
| 20260507063036 | 23 | 0.0 | 6.4 | 0.00 | 0.00 | 0.00 | 83 | 987.5 | |
| 20260507062016 | 23 | 0.0 | 4.8 | 0.00 | 0.00 | 0.00 | 83 | 987.6 | |
| 20260507061016 | 23 | 0.0 | 6.4 | 0.00 | 0.00 | 0.00 | 83 | 987.8 | |
| 20260507060016 | 23 | 0.0 | 0.0 | 0.00 | 0.00 | 0.00 | 82 | 987.8 | |
| 20260507055015 | 23 | 0.0 | 6.4 | 0.00 | 0.00 | 0.00 | 82 | 988.0 | |
| 20260507054016 | 23 | 0.0 | 1.6 | 0.00 | 0.00 | 0.00 | 81 | 988.1 | |
| 20260507053016 | 23 | 0.0 | 0.0 | 0.00 | 0.00 | 0.00 | 81 | 988.1 | |
| 20260507052018 | 23 | 0.0 | 0.0 | 0.00 | 0.00 | 0.00 | 81 | 988.2 | |
| 20260507051018 | 24 | 0.0 | 8.0 | 0.00 | 0.00 | 0.00 | 80 | 988.4 | |
| 20260507050037 | 24 | 0.0 | 1.6 | 0.00 | 0.00 | 0.00 | 80 | 988.4 | |
| 20260507045018 | 24 | 0.0 | 0.0 | 0.00 | 0.00 | 0.00 | 79 | 988.6 | |
| 20260507044017 | 24 | 0.0 | 0.0 | 0.00 | 0.00 | 0.00 | 79 | 988.6 | |
| 20260507043017 | 24 | 0.0 | 8.0 | 0.00 | 0.00 | 0.00 | 78 | 988.6 | |
| 20260507042037 | 24 | 293 | 1.6 | 6.4 | 0.00 | 0.00 | 0.00 | 77 | 988.7 |
| 20260507041017 | 24 | 0.0 | 1.6 | 0.00 | 0.00 | 0.00 | 77 | 988.9 | |
| 20260507040017 | 25 | 0.0 | 9.7 | 0.00 | 0.00 | 0.00 | 76 | 988.9 | |
| 20260507035016 | 25 | 0.0 | 6.4 | 0.00 | 0.00 | 0.00 | 75 | 988.8 | |
| 20260507034017 | 25 | 0.0 | 1.6 | 0.00 | 0.00 | 0.00 | 74 | 989.1 | |
| 20260507033016 | 25 | 0.0 | 6.4 | 0.00 | 0.00 | 0.00 | 74 | 989.1 | |
| 20260507032016 | 25 | 0.0 | 6.4 | 0.00 | 0.00 | 0.00 | 74 | 989.1 | |
| 20260507031016 | 25 | 0.0 | 4.8 | 0.00 | 0.00 | 0.00 | 73 | 989.1 | |
| 20260507030016 | 25 | 0.0 | 6.4 | 0.00 | 0.00 | 0.00 | 72 | 989.1 | |
| 20260507025016 | 25 | 0.0 | 8.0 | 0.00 | 0.00 | 0.00 | 72 | 989.1 | |
| 20260507024036 | 25 | 0.0 | 8.0 | 0.00 | 0.00 | 0.00 | 71 | 989.1 | |
| 20260507023016 | 25 | 0.0 | 4.8 | 0.00 | 0.00 | 0.00 | 70 | 989.1 | |
| 20260507022016 | 25 | 0.0 | 4.8 | 0.00 | 0.00 | 0.00 | 70 | 988.8 | |
| 20260507021016 | 25 | 0.0 | 0.0 | 0.00 | 0.00 | 0.00 | 69 | 988.6 | |
| 20260507020016 | 25 | 0.0 | 8.0 | 0.00 | 0.00 | 0.00 | 69 | 988.6 | |
| 20260507015036 | 25 | 0.0 | 4.8 | 0.00 | 0.00 | 0.00 | 67 | 988.5 | |
| 20260507014016 | 26 | 0.0 | 8.0 | 0.00 | 0.00 | 0.00 | 66 | 988.5 | |
| 20260507013016 | 26 | 0.0 | 0.0 | 0.00 | 0.00 | 0.00 | 65 | 988.5 | |
| 20260507012016 | 26 | 0.0 | 6.4 | 0.00 | 0.00 | 0.00 | 64 | 988.3 | |
| 20260507011016 | 26 | 0.0 | 1.6 | 0.00 | 0.00 | 0.00 | 63 | 988.1 | |
| 20260507010016 | 26 | 0.0 | 8.0 | 0.00 | 0.00 | 0.00 | 62 | 988.1 | |
| 20260507005016 | 26 | 0.0 | 8.0 | 0.00 | 0.00 | 0.00 | 61 | 988.0 | |
| 20260507004016 | 26 | 0.0 | 1.6 | 0.00 | 0.00 | 0.00 | 60 | 988.0 | |
| 20260507003016 | 26 | 0.0 | 8.0 | 0.00 | 0.00 | 0.00 | 59 | 988.0 | |
| 20260507002016 | 27 | 0.0 | 0.0 | 0.00 | 0.00 | 0.00 | 58 | 987.8 | |
| 20260507001055 | 27 | 0.0 | 3.2 | 0.00 | 0.00 | 0.00 | 57 | 987.6 | |
| 20260507000016 | 27 | 0.0 | 8.0 | 0.00 | 0.00 | 0.00 | 56 | 987.6 | |
| 20260506235016 | 27 | 315 | 1.6 | 12.9 | 0.00 | 0.00 | 0.00 | 56 | 987.5 |
| 20260506234015 | 27 | 315 | 3.2 | 14.5 | 0.00 | 0.00 | 0.00 | 55 | 987.1 |
| 20260506233016 | 28 | 315 | 1.6 | 17.7 | 0.00 | 0.00 | 0.00 | 54 | 987.1 |
| 20260506232016 | 28 | 315 | 1.6 | 9.7 | 0.00 | 0.00 | 0.00 | 53 | 987.0 |
| 20260506231017 | 28 | 315 | 1.6 | 16.1 | 0.00 | 0.00 | 0.00 | 52 | 986.9 |
| 20260506230017 | 28 | 315 | 1.6 | 17.7 | 0.00 | 0.00 | 0.00 | 51 | 986.9 |
| 20260506225017 | 28 | 315 | 1.6 | 11.3 | 0.00 | 0.00 | 0.00 | 49 | 986.8 |
| 20260506224017 | 29 | 315 | 1.6 | 9.7 | 0.00 | 0.00 | 0.00 | 48 | 986.5 |
| 20260506223017 | 29 | 315 | 1.6 | 11.3 | 0.00 | 0.00 | 0.00 | 48 | 986.5 |
| 20260506222017 | 30 | 315 | 4.8 | 20.9 | 0.00 | 0.00 | 0.00 | 47 | 986.4 |
| 20260506221017 | 30 | 315 | 3.2 | 19.3 | 0.00 | 0.00 | 0.00 | 46 | 986.3 |
| 20260506220017 | 30 | 315 | 3.2 | 17.7 | 0.00 | 0.00 | 0.00 | 45 | 986.3 |
| 20260506215017 | 30 | 315 | 4.8 | 24.1 | 0.00 | 0.00 | 0.00 | 44 | 986.0 |
| 20260506214037 | 30 | 315 | 4.8 | 22.5 | 0.00 | 0.00 | 0.00 | 44 | 985.9 |
| 20260506213017 | 31 | 338 | 4.8 | 22.5 | 0.00 | 0.00 | 0.00 | 44 | 985.9 |
| 20260506212017 | 31 | 315 | 8.0 | 20.9 | 0.00 | 0.00 | 0.00 | 46 | 985.5 |
| 20260506211037 | 31 | 0 | 6.4 | 20.9 | 0.00 | 0.00 | 0.00 | 46 | 985.5 |
| 20260506210017 | 31 | 0 | 6.4 | 29.0 | 0.00 | 0.00 | 0.00 | 44 | 985.5 |
| 20260506205017 | 31 | 338 | 9.7 | 27.4 | 0.00 | 0.00 | 0.00 | 44 | 985.6 |
| 20260506204017 | 31 | 338 | 8.0 | 33.8 | 0.00 | 0.00 | 0.00 | 44 | 985.5 |
| 20260506203037 | 31 | 0 | 8.0 | 22.5 | 0.00 | 0.00 | 0.00 | 44 | 985.5 |
| 20260506202017 | 32 | 338 | 8.0 | 22.5 | 0.00 | 0.00 | 0.00 | 45 | 985.5 |
| 20260506201017 | 31 | 0 | 3.2 | 22.5 | 0.00 | 0.00 | 0.00 | 46 | 985.6 |
| 20260506200017 | 32 | 338 | 6.4 | 24.1 | 0.00 | 0.00 | 0.00 | 43 | 985.6 |
| 20260506195017 | 32 | 315 | 6.4 | 22.5 | 0.00 | 0.00 | 0.00 | 44 | 985.6 |
| 20260506194017 | 32 | 315 | 8.0 | 22.5 | 0.00 | 0.00 | 0.00 | 44 | 985.9 |
| 20260506193017 | 32 | 0 | 9.7 | 24.1 | 0.00 | 0.00 | 0.00 | 46 | 985.9 |
| 20260506192037 | 32 | 315 | 9.7 | 24.1 | 0.00 | 0.00 | 0.00 | 43 | 985.8 |
| 20260506191016 | 32 | 315 | 9.7 | 27.4 | 0.00 | 0.00 | 0.00 | 43 | 985.9 |
| 20260506190036 | 32 | 315 | 9.7 | 27.4 | 0.00 | 0.00 | 0.00 | 43 | 985.9 |
| 20260506185017 | 32 | 315 | 9.7 | 20.9 | 0.00 | 0.00 | 0.00 | 45 | 985.9 |
| 20260506184016 | 32 | 338 | 6.4 | 27.4 | 0.00 | 0.00 | 0.00 | 46 | 986.1 |
| 20260506183016 | 32 | 338 | 8.0 | 20.9 | 0.00 | 0.00 | 0.00 | 44 | 986.1 |
| 20260506182016 | 32 | 315 | 8.0 | 35.4 | 0.00 | 0.00 | 0.00 | 40 | 986.2 |
| 20260506181016 | 32 | 315 | 8.0 | 22.5 | 0.00 | 0.00 | 0.00 | 44 | 986.5 |
| 20260506180016 | 32 | 0 | 9.7 | 32.2 | 0.00 | 0.00 | 0.00 | 45 | 986.5 |
| 20260506175016 | 32 | 315 | 6.4 | 24.1 | 0.00 | 0.00 | 0.00 | 45 | 986.6 |
| 20260506174016 | 32 | 0 | 6.4 | 32.2 | 0.00 | 0.00 | 0.00 | 46 | 987.0 |
| 20260506173016 | 32 | 0 | 6.4 | 24.1 | 0.00 | 0.00 | 0.00 | 44 | 987.0 |
| 20260506172016 | 31 | 0 | 6.4 | 19.3 | 0.00 | 0.00 | 0.00 | 47 | 987.2 |
| 20260506171017 | 31 | 338 | 8.0 | 22.5 | 0.00 | 0.00 | 0.00 | 46 | 987.5 |
| 20260506170056 | 31 | 0 | 8.0 | 27.4 | 0.00 | 0.00 | 0.00 | 48 | 987.5 |
| 20260506165056 | 31 | 315 | 3.2 | 16.1 | 0.00 | 0.00 | 0.00 | 48 | 987.7 |
| 20260506164016 | 31 | 0 | 9.7 | 24.1 | 0.00 | 0.00 | 0.00 | 47 | 987.9 |
| 20260506163016 | 31 | 338 | 4.8 | 22.5 | 0.00 | 0.00 | 0.00 | 49 | 987.9 |
| 20260506162016 | 31 | 0 | 8.0 | 27.4 | 0.00 | 0.00 | 0.00 | 48 | 988.1 |
| 20260506161016 | 30 | 0 | 6.4 | 22.5 | 0.00 | 0.00 | 0.00 | 52 | 988.5 |